createdAt,value
2018-04-08T00:01:41.710Z,6.47
2018-04-08T00:04:11.313Z,6.53
2018-04-08T00:06:40.158Z,10.93
2018-04-08T00:09:09.011Z,7.37
2018-04-08T00:11:38.921Z,7.70
2018-04-08T00:14:07.856Z,9.83
2018-04-08T00:16:36.666Z,8.70
2018-04-08T00:19:06.279Z,7.20
2018-04-08T00:21:35.874Z,5.90
2018-04-08T00:24:04.715Z,7.17
2018-04-08T00:26:33.546Z,8.77
2018-04-08T00:29:03.309Z,6.87
2018-04-08T00:31:32.122Z,6.07
2018-04-08T00:34:01.747Z,8.93
2018-04-08T00:36:31.354Z,7.73
2018-04-08T00:39:00.262Z,5.23
2018-04-08T00:41:29.726Z,5.83
2018-04-08T00:43:58.564Z,17.40
2018-04-08T00:46:27.405Z,15.97
2018-04-08T00:48:57.042Z,10.17
2018-04-08T00:51:25.885Z,10.53
2018-04-08T00:54:07.511Z,8.13
2018-04-08T00:56:36.340Z,10.50
2018-04-08T00:59:05.060Z,7.50
2018-04-08T01:01:33.728Z,6.37
2018-04-08T01:04:02.314Z,7.27
2018-04-08T01:06:30.918Z,6.93
2018-04-08T01:08:59.522Z,5.80
2018-04-08T01:11:28.101Z,5.30
2018-04-08T01:13:56.698Z,6.10
2018-04-08T01:16:25.307Z,7.70
2018-04-08T01:18:54.125Z,6.33
2018-04-08T01:21:22.962Z,8.37
2018-04-08T01:23:52.566Z,5.77
2018-04-08T01:26:22.181Z,6.40
2018-04-08T01:28:51.013Z,6.00
2018-04-08T01:31:19.850Z,6.20
2018-04-08T01:33:49.442Z,8.50
2018-04-08T01:36:18.287Z,5.80
2018-04-08T01:38:47.126Z,7.40
2018-04-08T01:41:15.959Z,9.20
2018-04-08T01:43:45.094Z,5.73
2018-04-08T01:46:14.374Z,8.70
2018-04-08T01:48:43.197Z,5.93
2018-04-08T01:51:12.033Z,6.60
2018-04-08T01:53:40.911Z,5.43
2018-04-08T01:56:10.654Z,6.93
2018-04-08T01:58:39.492Z,7.63
2018-04-08T02:01:08.644Z,6.10
2018-04-08T02:03:37.479Z,8.70
2018-04-08T02:06:07.075Z,6.27
2018-04-08T02:08:36.693Z,8.03
2018-04-08T02:11:06.286Z,7.00
2018-04-08T02:13:35.902Z,9.47
2018-04-08T02:16:05.503Z,6.00
2018-04-08T02:18:35.735Z,6.63
2018-04-08T02:21:05.334Z,7.83
2018-04-08T02:23:34.935Z,5.53
2018-04-08T02:26:03.778Z,8.07
2018-04-08T02:28:32.699Z,6.07
2018-04-08T02:31:02.478Z,16.23
2018-04-08T02:33:31.818Z,6.83
2018-04-08T02:36:00.656Z,9.87
2018-04-08T02:38:29.494Z,7.23
2018-04-08T02:40:59.215Z,6.10
2018-04-08T02:43:28.493Z,6.87
2018-04-08T02:45:58.090Z,6.60
2018-04-08T02:48:27.693Z,8.70
2018-04-08T02:50:57.323Z,7.30
2018-04-08T02:53:26.147Z,8.37
2018-04-08T02:55:54.982Z,8.67
2018-04-08T02:58:24.584Z,9.00
2018-04-08T03:00:54.182Z,11.63
2018-04-08T03:03:24.107Z,11.50
2018-04-08T03:05:53.787Z,14.03
2018-04-08T03:08:22.592Z,9.63
2018-04-08T03:10:51.419Z,7.97
2018-04-08T03:13:20.247Z,8.30
2018-04-08T03:15:49.086Z,10.07
2018-04-08T03:18:17.947Z,9.60
2018-04-08T03:20:46.765Z,9.17
2018-04-08T03:23:15.594Z,7.60
2018-04-08T03:25:44.426Z,9.43
2018-04-08T03:28:14.058Z,7.57
2018-04-08T03:30:42.889Z,10.10
2018-04-08T03:33:11.741Z,7.90
2018-04-08T03:35:40.629Z,9.27
2018-04-08T03:38:09.570Z,11.80
2018-04-08T03:40:39.231Z,8.53
2018-04-08T03:43:08.068Z,9.00
2018-04-08T03:45:38.418Z,13.60
2018-04-08T03:48:08.149Z,9.50
2018-04-08T03:50:37.724Z,8.93
2018-04-08T03:53:06.565Z,10.90
2018-04-08T03:55:35.396Z,8.43
2018-04-08T03:58:04.998Z,8.33
2018-04-08T04:00:33.946Z,10.07
2018-04-08T04:03:02.811Z,9.63
2018-04-08T04:05:31.661Z,9.30
2018-04-08T04:08:00.498Z,8.87
2018-04-08T04:10:29.337Z,7.30
2018-04-08T04:12:58.166Z,9.27
2018-04-08T04:15:27.334Z,10.43
2018-04-08T04:17:57.154Z,10.83
2018-04-08T04:23:43.202Z,9.00
2018-04-08T04:26:24.091Z,10.27
2018-04-08T04:28:53.683Z,8.30
2018-04-08T04:31:22.518Z,10.20
2018-04-08T04:33:51.964Z,8.57
2018-04-08T04:36:20.801Z,8.77
2018-04-08T04:38:49.614Z,8.67
2018-04-08T04:41:18.792Z,9.03
2018-04-08T04:43:47.631Z,9.67
2018-04-08T04:46:16.467Z,7.87
2018-04-08T04:48:45.292Z,9.60
2018-04-08T04:51:14.184Z,12.20
2018-04-08T04:53:42.966Z,8.80
2018-04-08T04:56:11.823Z,8.57
2018-04-08T04:58:40.680Z,11.93
2018-04-08T05:01:09.514Z,8.60
2018-04-08T05:03:38.356Z,10.93
2018-04-08T05:06:07.181Z,10.27
2018-04-08T05:08:36.034Z,8.13
2018-04-08T05:11:05.979Z,8.77
2018-04-08T05:13:35.583Z,8.50
2018-04-08T05:16:05.048Z,8.63
2018-04-08T05:18:33.891Z,8.77
2018-04-08T05:21:02.728Z,10.40
2018-04-08T05:23:31.570Z,8.57
2018-04-08T05:26:00.388Z,10.60
2018-04-08T05:28:29.958Z,8.97
2018-04-08T05:30:58.776Z,10.60
2018-04-08T05:33:27.640Z,10.70
2018-04-08T05:35:56.478Z,13.63
2018-04-08T05:38:26.847Z,14.83
2018-04-08T05:40:55.725Z,12.07
2018-04-08T05:43:26.038Z,12.20
2018-04-08T05:45:55.642Z,9.87
2018-04-08T05:48:24.662Z,9.97
2018-04-08T05:50:53.655Z,8.77
2018-04-08T05:53:22.505Z,10.17
2018-04-08T05:55:51.335Z,9.33
2018-04-08T05:58:20.166Z,9.00
2018-04-08T06:00:49.010Z,10.43
2018-04-08T06:03:17.831Z,9.03
2018-04-08T06:05:46.693Z,8.67
2018-04-08T06:08:15.631Z,8.87
2018-04-08T06:10:44.677Z,8.50
2018-04-08T06:13:13.583Z,8.20
2018-04-08T06:15:42.426Z,10.70
2018-04-08T06:18:12.021Z,11.77
2018-04-08T06:20:41.629Z,8.40
2018-04-08T06:23:10.498Z,9.57
2018-04-08T06:25:39.343Z,10.33
2018-04-08T06:28:09.078Z,8.00
2018-04-08T06:30:37.907Z,7.47
2018-04-08T06:33:07.499Z,7.03
2018-04-08T06:35:37.102Z,8.10
2018-04-08T06:38:06.704Z,9.30
2018-04-08T06:40:35.642Z,9.40
2018-04-08T06:43:04.549Z,10.33
2018-04-08T06:45:33.731Z,9.70
2018-04-08T06:48:02.590Z,10.57
2018-04-08T06:50:31.422Z,11.07
2018-04-08T06:53:00.266Z,9.57
2018-04-08T06:55:30.276Z,11.43
2018-04-08T06:57:59.897Z,9.17
2018-04-08T07:00:29.498Z,9.53
2018-04-08T07:02:58.323Z,11.67
2018-04-08T07:05:27.182Z,9.00
2018-04-08T07:07:56.774Z,9.13
2018-04-08T07:10:26.382Z,15.33
2018-04-08T07:12:56.430Z,8.70
2018-04-08T07:15:25.282Z,13.27
2018-04-08T07:17:54.943Z,9.50
2018-04-08T07:20:24.786Z,10.37
2018-04-08T07:22:53.602Z,9.40
2018-04-08T07:25:23.207Z,9.67
2018-04-08T07:27:52.809Z,8.83
2018-04-08T07:30:22.410Z,9.60
2018-04-08T07:32:52.018Z,9.03
2018-04-08T07:35:21.620Z,12.93
2018-04-08T07:37:50.458Z,10.20
2018-04-08T07:40:19.306Z,8.47
2018-04-08T07:42:48.926Z,11.07
2018-04-08T07:45:17.751Z,9.30
2018-04-08T07:47:46.582Z,9.33
2018-04-08T07:50:16.199Z,8.60
2018-04-08T07:52:45.846Z,11.60
2018-04-08T07:55:14.694Z,10.40
2018-04-08T07:57:44.289Z,8.30
2018-04-08T08:00:13.920Z,9.87
2018-04-08T08:02:43.535Z,9.00
2018-04-08T08:05:12.421Z,8.60
2018-04-08T08:07:41.276Z,8.33
2018-04-08T08:10:10.137Z,8.80
2018-04-08T08:12:38.983Z,8.43
2018-04-08T08:15:08.595Z,8.90
2018-04-08T08:17:37.419Z,9.53
2018-04-08T08:20:06.249Z,8.57
2018-04-08T08:22:35.095Z,9.23
2018-04-08T08:25:03.936Z,8.00
2018-04-08T08:27:32.778Z,9.23
2018-04-08T08:30:01.585Z,8.50
2018-04-08T08:32:30.420Z,7.93
2018-04-08T08:35:01.038Z,8.63
2018-04-08T08:37:29.874Z,9.10
2018-04-08T08:39:58.747Z,9.27
2018-04-08T08:42:27.606Z,8.00
2018-04-08T08:44:56.430Z,8.57
2018-04-08T08:47:25.290Z,8.83
2018-04-08T08:49:54.429Z,7.97
2018-04-08T08:52:23.279Z,8.93
2018-04-08T08:54:52.124Z,9.50
2018-04-08T08:57:20.951Z,7.77
2018-04-08T08:59:49.793Z,12.73
2018-04-08T09:02:18.625Z,9.00
2018-04-08T09:04:47.475Z,9.53
2018-04-08T09:07:16.330Z,12.63
2018-04-08T09:09:45.938Z,10.53
2018-04-08T09:12:15.520Z,9.53
2018-04-08T09:14:44.366Z,10.20
2018-04-08T09:17:13.496Z,14.73
2018-04-08T09:23:04.442Z,11.13
2018-04-08T09:25:52.941Z,11.37
2018-04-08T09:28:21.802Z,11.47
2018-04-08T09:30:50.654Z,11.17
2018-04-08T09:33:19.528Z,10.83
2018-04-08T09:35:49.881Z,14.17
2018-04-08T09:38:19.491Z,11.50
2018-04-08T09:40:48.367Z,10.83
2018-04-08T09:43:17.350Z,9.70
2018-04-08T09:45:47.009Z,10.33
2018-04-08T09:48:15.850Z,11.03
2018-04-08T09:50:44.782Z,12.27
2018-04-08T09:53:13.636Z,10.53
2018-04-08T09:55:42.472Z,10.90
2018-04-08T09:58:27.035Z,10.30
2018-04-08T10:01:10.792Z,9.47
2018-04-08T10:03:46.322Z,9.70
2018-04-08T10:06:15.211Z,10.97
2018-04-08T10:08:44.051Z,10.17
2018-04-08T10:11:13.670Z,11.27
2018-04-08T10:13:43.044Z,11.07
2018-04-08T10:16:11.915Z,11.90
2018-04-08T10:18:40.751Z,10.60
2018-04-08T10:21:10.374Z,11.80
2018-04-08T10:23:39.234Z,11.50
2018-04-08T10:26:08.832Z,10.63
2018-04-08T10:28:38.563Z,9.90
2018-04-08T10:31:07.404Z,11.87
2018-04-08T10:33:36.311Z,11.63
2018-04-08T10:36:05.901Z,10.50
2018-04-08T10:38:36.003Z,12.10
2018-04-08T10:41:05.630Z,12.53
2018-04-08T10:43:35.297Z,13.27
2018-04-08T10:46:04.114Z,17.53
2018-04-08T10:48:33.726Z,12.13
2018-04-08T10:51:03.392Z,12.60
2018-04-08T10:53:32.321Z,11.90
2018-04-08T10:56:01.955Z,11.70
2018-04-08T10:58:31.794Z,10.47
2018-04-08T11:01:00.985Z,11.03
2018-04-08T11:03:29.802Z,9.10
2018-04-08T11:05:59.206Z,14.33
2018-04-08T11:08:28.048Z,11.80
2018-04-08T11:10:56.921Z,12.03
2018-04-08T11:13:26.544Z,11.23
2018-04-08T11:15:55.424Z,11.23
2018-04-08T11:18:24.691Z,13.20
2018-04-08T11:20:53.553Z,11.10
2018-04-08T11:23:22.435Z,11.47
2018-04-08T11:25:51.316Z,12.10
2018-04-08T11:28:20.176Z,13.00
2018-04-08T11:30:49.038Z,12.83
2018-04-08T11:33:18.653Z,11.50
2018-04-08T11:35:47.520Z,14.60
2018-04-08T11:38:17.888Z,12.93
2018-04-08T11:40:46.705Z,12.57
2018-04-08T11:43:15.562Z,14.23
2018-04-08T11:45:44.411Z,13.80
2018-04-08T11:48:13.293Z,12.83
2018-04-08T11:50:42.157Z,13.10
2018-04-08T11:53:11.278Z,13.60
2018-04-08T11:55:40.543Z,12.43
2018-04-08T11:58:09.398Z,14.50
2018-04-08T12:00:38.260Z,14.80
2018-04-08T12:03:07.106Z,12.63
2018-04-08T12:05:35.967Z,13.90
2018-04-08T12:08:04.826Z,15.80
2018-04-08T12:10:33.676Z,13.37
2018-04-08T12:13:02.549Z,14.33
2018-04-08T12:15:31.422Z,13.30
2018-04-08T12:18:01.043Z,13.50
2018-04-08T12:20:29.910Z,13.57
2018-04-08T12:22:59.533Z,15.80
2018-04-08T12:25:28.620Z,11.70
2018-04-08T12:27:58.217Z,12.10
2018-04-08T12:30:27.829Z,11.23
2018-04-08T12:32:56.659Z,18.00
2018-04-08T12:53:34.247Z,12.87
2018-04-08T12:56:03.859Z,15.33
2018-04-08T12:58:33.491Z,11.50
2018-04-08T13:01:02.343Z,12.17
2018-04-08T13:03:32.002Z,12.30
2018-04-08T13:06:01.739Z,12.87
2018-04-08T13:08:30.646Z,11.57
2018-04-08T13:10:59.645Z,10.23
2018-04-08T13:13:28.501Z,11.43
2018-04-08T13:15:57.561Z,14.63
2018-04-08T13:18:26.448Z,10.33
2018-04-08T13:20:56.036Z,13.43
2018-04-08T13:23:25.650Z,10.43
2018-04-08T13:25:54.498Z,12.07
2018-04-08T13:28:23.371Z,17.10
2018-04-08T13:30:52.239Z,14.83
2018-04-08T13:33:21.086Z,10.47
2018-04-08T13:35:50.689Z,9.93
2018-04-08T13:38:20.367Z,13.20
2018-04-08T13:40:49.207Z,10.23
2018-04-08T13:43:18.068Z,12.60
2018-04-08T13:45:47.665Z,9.60
2018-04-08T13:48:16.538Z,12.17
2018-04-08T13:50:45.379Z,12.60
2018-04-08T13:53:14.239Z,10.20
2018-04-08T13:55:43.078Z,12.73
2018-04-08T13:58:11.929Z,10.60
2018-04-08T14:00:40.851Z,11.60
2018-04-08T14:03:09.688Z,15.07
2018-04-08T14:05:38.524Z,9.67
2018-04-08T14:08:07.372Z,12.23
2018-04-08T14:10:37.346Z,12.03
2018-04-08T14:13:06.204Z,10.73
2018-04-08T14:15:35.071Z,10.13
2018-04-08T14:18:04.681Z,11.23
2018-04-08T14:20:33.651Z,16.33
2018-04-08T14:23:02.507Z,11.90
2018-04-08T14:25:31.354Z,14.77
2018-04-08T14:28:00.971Z,10.90
2018-04-08T14:30:29.836Z,16.20
2018-04-08T14:32:58.694Z,9.70
2018-04-08T14:35:28.587Z,14.30
2018-04-08T14:37:57.432Z,8.60
2018-04-08T14:40:27.624Z,11.23
2018-04-08T14:42:56.481Z,9.20
2018-04-08T14:45:25.344Z,14.07
2018-04-08T14:47:54.968Z,10.43
2018-04-08T14:50:23.838Z,11.00
2018-04-08T14:52:52.669Z,9.93
2018-04-08T14:55:22.279Z,17.03
2018-04-08T14:57:51.106Z,12.50
2018-04-08T15:00:20.675Z,9.57
2018-04-08T15:02:49.530Z,10.83
2018-04-08T15:05:19.154Z,9.77
2018-04-08T15:07:47.978Z,8.90
2018-04-08T15:10:16.822Z,8.37
2018-04-08T15:12:46.434Z,14.77
2018-04-08T15:15:15.260Z,9.93
2018-04-08T15:17:44.121Z,14.00
2018-04-08T15:20:12.969Z,13.20
2018-04-08T15:22:42.873Z,12.80
2018-04-08T15:25:11.692Z,11.13
2018-04-08T15:27:40.819Z,12.47
2018-04-08T15:30:09.673Z,10.90
2018-04-08T15:32:38.523Z,16.23
2018-04-08T15:35:07.363Z,9.13
2018-04-08T15:37:36.983Z,8.07
2018-04-08T15:40:06.591Z,11.80
2018-04-08T15:42:35.579Z,8.40
2018-04-08T15:45:05.257Z,10.93
2018-04-08T15:47:34.923Z,12.37
2018-04-08T15:50:03.766Z,15.03
2018-04-08T15:52:33.390Z,12.03
2018-04-08T15:55:02.994Z,8.17
2018-04-08T15:57:32.619Z,11.73
2018-04-08T16:00:01.497Z,14.17
2018-04-08T16:02:31.099Z,10.73
2018-04-08T16:05:00.719Z,8.90
2018-04-08T16:07:29.552Z,12.57
2018-04-08T16:09:58.391Z,10.20
2018-04-08T16:12:27.577Z,13.23
2018-04-08T16:14:57.220Z,14.27
2018-04-08T16:17:26.068Z,14.17
2018-04-08T16:19:54.924Z,17.93
2018-04-08T16:22:24.501Z,14.47
2018-04-08T16:24:53.348Z,18.67
2018-04-08T16:27:23.034Z,14.73
2018-04-08T16:29:51.973Z,11.60
2018-04-08T16:32:20.814Z,14.93
2018-04-08T16:34:50.518Z,15.43
2018-04-08T16:37:19.363Z,11.97
2018-04-08T16:39:49.239Z,11.27
2018-04-08T16:42:18.060Z,10.50
2018-04-08T16:44:47.719Z,13.17
2018-04-08T16:47:16.575Z,10.80
2018-04-08T16:49:45.420Z,16.50
2018-04-08T16:52:14.786Z,9.37
2018-04-08T16:54:43.638Z,9.13
2018-04-08T16:57:12.508Z,14.93
2018-04-08T16:59:41.308Z,8.77
2018-04-08T17:02:10.150Z,12.13
2018-04-08T17:04:39.567Z,9.97
2018-04-08T17:07:08.428Z,7.87
2018-04-08T17:09:37.261Z,16.90
2018-04-08T17:12:06.136Z,10.83
2018-04-08T17:14:34.969Z,9.47
2018-04-08T17:17:04.572Z,12.53
2018-04-08T17:19:34.215Z,10.70
2018-04-08T17:22:03.066Z,12.87
2018-04-08T17:24:32.693Z,10.50
2018-04-08T17:27:01.527Z,16.70
2018-04-08T17:29:30.393Z,13.93
2018-04-08T17:31:59.227Z,13.87
2018-04-08T17:34:28.703Z,19.70
2018-04-08T17:36:57.546Z,10.37
2018-04-08T17:39:27.187Z,11.00
2018-04-08T17:41:56.069Z,14.87
2018-04-08T17:44:24.921Z,13.40
2018-04-08T17:46:53.761Z,13.90
2018-04-08T17:49:22.638Z,16.17
2018-04-08T17:51:51.506Z,13.93
2018-04-08T17:54:21.127Z,15.10
2018-04-08T17:56:49.981Z,15.60
2018-04-08T17:59:19.620Z,13.20
2018-04-08T18:01:48.508Z,13.20
2018-04-08T18:04:17.355Z,13.87
2018-04-08T18:06:47.743Z,15.87
2018-04-08T18:09:16.582Z,14.07
2018-04-08T18:11:46.210Z,13.10
2018-04-08T18:14:15.812Z,23.57
2018-04-08T18:16:45.421Z,13.20
2018-04-08T18:19:15.038Z,16.90
2018-04-08T18:21:44.662Z,11.60
2018-04-08T18:24:13.501Z,11.93
2018-04-08T18:26:42.380Z,15.00
2018-04-08T18:29:11.226Z,12.90
2018-04-08T18:31:40.523Z,15.43
2018-04-08T18:34:09.386Z,18.60
2018-04-08T18:36:38.277Z,15.60
2018-04-08T18:39:07.415Z,10.53
2018-04-08T18:41:36.246Z,11.33
2018-04-08T18:44:05.890Z,16.47
2018-04-08T18:46:34.752Z,13.93
2018-04-08T18:49:04.368Z,15.70
2018-04-08T18:51:33.223Z,11.90
2018-04-08T18:54:02.142Z,12.70
2018-04-08T18:56:31.750Z,10.93
2018-04-08T18:59:01.378Z,12.40
2018-04-08T19:01:30.214Z,11.83
2018-04-08T19:03:59.103Z,9.47
2018-04-08T19:06:27.968Z,13.90
2018-04-08T19:08:56.855Z,11.87
2018-04-08T19:24:25.736Z,9.77
2018-04-08T19:26:54.575Z,12.73
2018-04-08T19:29:24.216Z,13.47
2018-04-08T19:44:58.095Z,12.47
2018-04-08T19:47:27.714Z,11.03
2018-04-08T19:49:56.600Z,9.07
2018-04-08T19:52:26.108Z,16.37
2018-04-08T19:54:54.994Z,11.80
2018-04-08T19:57:24.655Z,13.23
2018-04-08T19:59:53.763Z,15.77
2018-04-08T20:02:22.975Z,10.40
2018-04-08T20:04:52.136Z,11.83
2018-04-08T20:07:21.027Z,13.10
2018-04-08T20:09:49.899Z,12.93
2018-04-08T20:12:18.757Z,11.23
2018-04-08T20:14:48.367Z,9.60
2018-04-08T20:17:18.209Z,9.00
2018-04-08T20:19:47.053Z,18.80
2018-04-08T20:22:15.895Z,13.33
2018-04-08T20:24:44.759Z,17.83
2018-04-08T20:27:13.612Z,13.83
2018-04-08T20:29:43.227Z,14.83
2018-04-08T20:32:12.872Z,18.00
2018-04-08T20:34:41.712Z,17.40
2018-04-08T20:37:10.575Z,12.47
2018-04-08T20:39:39.475Z,12.90
2018-04-08T20:42:08.331Z,11.97
2018-04-08T20:44:39.009Z,16.13
2018-04-08T20:47:08.793Z,14.20
2018-04-08T20:49:37.610Z,12.33
2018-04-08T20:52:06.463Z,15.37
2018-04-08T20:54:36.090Z,15.93
2018-04-08T20:57:05.715Z,21.17
2018-04-08T20:59:34.588Z,14.13
2018-04-08T21:02:04.186Z,14.87
2018-04-08T21:04:33.821Z,17.33
2018-04-08T21:07:02.748Z,17.93
2018-04-08T21:09:31.599Z,24.27
2018-04-08T21:12:00.905Z,14.73
2018-04-08T21:14:29.748Z,19.03
2018-04-08T21:16:59.388Z,14.23
2018-04-08T21:19:28.268Z,14.33
2018-04-08T21:21:58.792Z,17.60
2018-04-08T21:24:28.503Z,17.13
2018-04-08T21:26:57.313Z,16.83
2018-04-08T21:29:26.162Z,24.40
2018-04-08T21:31:55.779Z,16.53
2018-04-08T21:34:25.735Z,12.70
2018-04-08T21:36:55.791Z,15.87
2018-04-08T21:39:25.091Z,14.07
2018-04-08T21:41:54.739Z,18.50
2018-04-08T21:44:23.605Z,13.87
2018-04-08T21:46:53.257Z,12.77
2018-04-08T21:49:22.067Z,16.10
2018-04-08T21:51:50.929Z,18.10
2018-04-08T21:54:19.785Z,16.33
2018-04-08T21:56:48.630Z,18.87
2018-04-08T21:59:17.480Z,21.10
2018-04-08T22:01:46.348Z,13.03
2018-04-08T22:04:15.519Z,15.37
2018-04-08T22:06:45.579Z,14.60
2018-04-08T22:11:49.571Z,14.97
2018-04-08T22:14:19.189Z,21.30
2018-04-08T22:16:48.050Z,20.40
2018-04-08T22:19:16.898Z,15.07
2018-04-08T22:21:45.740Z,27.27
2018-04-08T22:24:15.346Z,22.13
2018-04-08T22:26:44.972Z,17.73
2018-04-08T22:29:14.587Z,13.23
2018-04-08T22:31:43.507Z,18.43
2018-04-08T22:34:12.355Z,15.67
2018-04-08T22:36:41.226Z,19.37
2018-04-08T22:39:10.827Z,17.80
2018-04-08T22:41:40.496Z,16.07
2018-04-08T22:44:09.309Z,16.10
2018-04-08T22:46:38.906Z,15.20
2018-04-08T22:49:07.788Z,14.93
2018-04-08T22:51:36.611Z,15.53
2018-04-08T22:54:05.616Z,20.63
2018-04-08T22:56:34.468Z,23.10
2018-04-08T22:59:03.322Z,16.10
2018-04-08T23:01:32.179Z,14.43
2018-04-08T23:04:01.024Z,14.97
2018-04-08T23:06:29.871Z,16.10
2018-04-08T23:08:58.714Z,17.00
2018-04-08T23:11:27.551Z,16.93
2018-04-08T23:13:56.398Z,14.80
2018-04-08T23:16:26.010Z,16.07
2018-04-08T23:18:54.848Z,16.90
2018-04-08T23:21:23.730Z,21.83
2018-04-08T23:23:52.583Z,15.10
2018-04-08T23:26:22.186Z,14.17
2018-04-08T23:28:51.806Z,11.90
2018-04-08T23:31:21.417Z,15.17
2018-04-08T23:33:51.034Z,12.97
2018-04-08T23:36:19.879Z,17.80
2018-04-08T23:38:48.767Z,13.30
2018-04-08T23:41:17.613Z,16.70
2018-04-08T23:43:47.226Z,14.17
2018-04-08T23:46:16.834Z,12.73
2018-04-08T23:48:45.688Z,15.30
2018-04-08T23:51:14.530Z,17.60
2018-04-08T23:53:43.635Z,24.10
2018-04-08T23:56:12.470Z,14.63
2018-04-08T23:58:41.399Z,22.67
